Time;durP1;ratioP1;P1;durP2;ratioP2;P2;SDS_P1;SDS_P2;PMS_P1;PMS_P2;Temp;Humidity;BMP_temperature;BMP_pressure;BME280_temperature;BME280_humidity;BME280_pressure;Samples;Min_cycle;Max_cycle;Signal;HPM_P1;HPM_P2
2022/07/06 00:01:43;;;;;;;2.03;1.90;;;-12.20;99.90;;;;;;5066143;28;20360;-71
2022/07/06 00:04:09;;;;;;;2.90;2.63;;;-11.10;99.90;;;;;;5063250;28;20180;-75
2022/07/06 00:06:35;;;;;;;4.13;2.23;;;-13.10;99.90;;;;;;5065695;28;20199;-73
2022/07/06 00:09:02;;;;;;;1.90;1.57;;;-10.60;99.90;;;;;;5065657;28;20214;-74
2022/07/06 00:11:28;;;;;;;5.03;2.00;;;-9.70;99.90;;;;;;5063247;28;20176;-77
2022/07/06 00:13:54;;;;;;;3.50;2.83;;;-8.80;99.90;;;;;;5065825;28;20641;-76
2022/07/06 00:16:19;;;;;;;2.90;2.00;;;-11.60;99.90;;;;;;5065759;28;20661;-75
2022/07/06 00:18:45;;;;;;;2.20;2.10;;;-11.60;99.90;;;;;;5063929;28;20538;-73
2022/07/06 00:21:11;;;;;;;2.43;2.30;;;-10.00;99.90;;;;;;5066264;28;20216;-74
2022/07/06 00:23:37;;;;;;;2.70;2.00;;;-13.00;99.90;;;;;;5065028;28;20172;-71
2022/07/06 00:26:03;;;;;;;3.93;2.30;;;-14.30;99.90;;;;;;5064535;28;20593;-76
2022/07/06 00:28:29;;;;;;;3.53;1.73;;;-13.20;99.90;;;;;;5066094;28;20684;-74
2022/07/06 00:30:55;;;;;;;3.20;2.10;;;-15.40;99.90;;;;;;5064744;28;20176;-74
2022/07/06 00:33:21;;;;;;;3.50;2.20;;;-12.20;99.90;;;;;;5064548;28;20190;-72
2022/07/06 00:35:48;;;;;;;6.90;2.67;;;-12.80;99.90;;;;;;5066017;28;20216;-76
2022/07/06 00:38:13;;;;;;;2.83;1.77;;;-13.80;99.90;;;;;;5063073;28;20664;-72
2022/07/06 00:40:39;;;;;;;2.20;2.00;;;-14.90;99.90;;;;;;5065082;28;20225;-71
2022/07/06 00:43:05;;;;;;;5.43;2.63;;;-13.60;99.90;;;;;;5065782;28;20182;-75
2022/07/06 00:45:31;;;;;;;3.07;2.17;;;-13.90;99.90;;;;;;5063711;28;20255;-74
2022/07/06 00:47:57;;;;;;;2.73;2.53;;;-14.40;99.90;;;;;;5064234;28;20195;-73
2022/07/06 00:50:23;;;;;;;3.73;2.43;;;-15.20;99.90;;;;;;5065181;28;20168;-73
2022/07/06 00:52:58;;;;;;;2.33;1.90;;;-14.60;99.90;;;;;;5063881;28;20184;-75
2022/07/06 00:55:27;;;;;;;4.43;2.23;;;-16.80;99.90;;;;;;5064418;28;20562;-71
2022/07/06 00:57:54;;;;;;;2.30;2.13;;;-17.30;99.90;;;;;;5065976;28;20179;-74
2022/07/06 01:00:23;;;;;;;3.43;2.37;;;-15.60;99.90;;;;;;5064376;28;20188;-73
2022/07/06 01:02:50;;;;;;;3.90;2.57;;;-13.40;99.90;;;;;;5063410;28;20187;-73
2022/07/06 01:05:16;;;;;;;2.60;2.17;;;-14.00;99.90;;;;;;5064092;28;20637;-70
2022/07/06 01:07:44;;;;;;;3.13;2.77;;;-13.70;99.90;;;;;;5064797;28;20194;-72
2022/07/06 01:10:12;;;;;;;4.03;2.33;;;-12.80;99.90;;;;;;5065718;28;20617;-72
2022/07/06 01:12:40;;;;;;;3.40;2.20;;;-14.50;99.90;;;;;;5064068;28;20187;-71
2022/07/06 01:15:08;;;;;;;3.17;2.27;;;-17.40;99.90;;;;;;5064227;28;20175;-76
2022/07/06 01:17:34;;;;;;;4.90;2.17;;;-18.50;99.90;;;;;;5065477;28;20232;-71
2022/07/06 01:20:14;;;;;;;6.00;2.43;;;-16.90;99.90;;;;;;5064030;28;20172;-70
2022/07/06 01:22:40;;;;;;;5.60;2.37;;;-16.20;99.90;;;;;;5065470;28;20184;-73
2022/07/06 01:25:06;;;;;;;3.50;2.60;;;-15.20;99.90;;;;;;5066904;28;20171;-74
2022/07/06 01:27:37;;;;;;;2.87;2.57;;;-18.20;99.90;;;;;;5069217;28;20174;-75
2022/07/06 01:30:07;;;;;;;4.83;3.47;;;-20.80;99.90;;;;;;5067073;28;20172;-68
2022/07/06 01:32:34;;;;;;;4.13;2.63;;;-19.10;99.90;;;;;;5066854;28;20255;-72
2022/07/06 01:35:00;;;;;;;4.27;2.67;;;-19.00;99.90;;;;;;5067732;28;20168;-70
2022/07/06 01:37:26;;;;;;;2.33;2.07;;;-19.10;99.90;;;;;;5068297;28;20194;-68
2022/07/06 01:39:51;;;;;;;6.03;2.67;;;-20.40;99.90;;;;;;5065597;28;20198;-68
2022/07/06 01:42:17;;;;;;;4.13;2.47;;;-22.00;99.90;;;;;;5066984;28;20222;-69
2022/07/06 01:44:44;;;;;;;5.57;1.97;;;-23.30;99.90;;;;;;5068136;28;20244;-68
2022/07/06 01:47:11;;;;;;;4.67;2.40;;;-19.50;99.90;;;;;;5068228;28;20204;-69
2022/07/06 01:49:37;;;;;;;2.50;2.30;;;-21.40;99.90;;;;;;5066620;28;20457;-71
2022/07/06 01:52:03;;;;;;;2.57;2.30;;;-18.00;99.90;;;;;;5068326;28;20198;-71
2022/07/06 01:54:29;;;;;;;2.20;2.00;;;-14.90;99.90;;;;;;5068294;28;20176;-72
2022/07/06 01:56:54;;;;;;;5.97;3.00;;;-13.30;99.90;;;;;;5066540;28;20226;-69
2022/07/06 01:59:20;;;;;;;3.90;3.60;;;-21.70;99.90;;;;;;5068574;28;20179;-68
2022/07/06 02:01:46;;;;;;;3.30;3.10;;;-20.20;99.90;;;;;;5067057;28;20603;-69
2022/07/06 02:04:12;;;;;;;5.73;3.63;;;-18.40;99.90;;;;;;5065720;28;20182;-68
2022/07/06 02:06:37;;;;;;;2.93;2.73;;;-14.60;99.90;;;;;;5067135;28;20176;-66
2022/07/06 02:09:03;;;;;;;3.53;3.30;;;-17.60;99.90;;;;;;5067295;28;20176;-66
2022/07/06 02:11:29;;;;;;;3.77;3.47;;;-16.90;99.90;;;;;;5065906;28;20175;-67
2022/07/06 02:13:55;;;;;;;6.00;3.63;;;-20.90;99.90;;;;;;5068262;28;20186;-68
2022/07/06 02:16:21;;;;;;;3.60;3.30;;;-19.20;99.90;;;;;;5066172;28;20200;-69
2022/07/06 02:18:47;;;;;;;4.03;3.20;;;-21.70;99.90;;;;;;5067535;28;20171;-67
2022/07/06 02:21:12;;;;;;;3.20;2.63;;;-22.30;99.90;;;;;;5067822;28;20334;-67
2022/07/06 02:23:39;;;;;;;3.03;2.80;;;-25.40;99.90;;;;;;5066129;28;20179;-66
2022/07/06 02:26:05;;;;;;;5.50;2.87;;;-27.50;99.90;;;;;;5067280;28;20233;-67
2022/07/06 02:28:30;;;;;;;4.03;2.83;;;-29.00;99.90;;;;;;5067622;28;20172;-70
2022/07/06 02:30:56;;;;;;;3.07;2.87;;;-26.10;99.90;;;;;;5065848;28;20479;-71
2022/07/06 02:33:22;;;;;;;3.37;3.03;;;-19.70;99.90;;;;;;5067265;28;20473;-67
2022/07/06 02:35:48;;;;;;;3.87;2.23;;;-23.20;99.90;;;;;;5066104;28;20229;-69
2022/07/06 02:38:13;;;;;;;2.33;2.23;;;-27.30;99.90;;;;;;5066185;28;20282;-67
2022/07/06 02:40:40;;;;;;;6.50;2.93;;;-29.90;99.90;;;;;;5067811;28;20192;-68
2022/07/06 02:43:05;;;;;;;5.03;2.40;;;-27.70;99.90;;;;;;5066496;28;20176;-71
2022/07/06 02:45:32;;;;;;;6.23;3.00;;;-23.80;99.90;;;;;;5066267;28;20173;-70
2022/07/06 02:47:57;;;;;;;2.63;2.43;;;-26.10;99.90;;;;;;5067626;28;20942;-68
2022/07/06 02:50:24;;;;;;;5.77;2.53;;;-32.00;99.90;;;;;;5066069;28;20168;-67
2022/07/06 02:52:50;;;;;;;4.90;2.00;;;-29.20;99.90;;;;;;5066543;28;20228;-68
2022/07/06 02:55:17;;;;;;;2.30;1.90;;;-29.20;99.90;;;;;;5067828;28;20168;-67
2022/07/06 02:57:43;;;;;;;2.60;2.40;;;-29.20;99.90;;;;;;5065513;28;20176;-74
2022/07/06 03:00:09;;;;;;;2.90;2.30;;;-32.10;99.90;;;;;;5066626;28;20182;-72
2022/07/06 03:02:36;;;;;;;8.33;3.03;;;-32.10;99.90;;;;;;5066700;28;20194;-66
2022/07/06 03:05:02;;;;;;;3.37;2.47;;;-32.10;99.90;;;;;;5064303;28;20567;-70
2022/07/06 03:07:28;;;;;;;3.77;3.33;;;-34.30;99.90;;;;;;5066511;28;20182;-71
2022/07/06 03:09:53;;;;;;;3.23;3.03;;;-34.30;99.90;;;;;;5066708;28;20173;-67
2022/07/06 03:12:19;;;;;;;2.70;2.43;;;-30.40;99.90;;;;;;5065236;28;20217;-76
2022/07/06 03:14:45;;;;;;;5.63;2.80;;;-33.50;99.90;;;;;;5066758;28;20176;-75
2022/07/06 03:17:11;;;;;;;3.60;2.53;;;-37.50;99.90;;;;;;5065975;28;20176;-70
2022/07/06 03:19:37;;;;;;;6.53;3.10;;;-40.00;99.90;;;;;;5065692;28;20659;-76
2022/07/06 03:22:03;;;;;;;2.90;2.37;;;-35.90;99.90;;;;;;5066843;28;20504;-77
2022/07/06 03:24:28;;;;;;;4.03;2.57;;;-32.20;99.90;;;;;;5065715;28;20168;-77
2022/07/06 03:26:54;;;;;;;3.27;2.47;;;-36.70;99.90;;;;;;5065762;28;20219;-77
2022/07/06 03:29:20;;;;;;;3.93;3.43;;;-32.20;99.90;;;;;;5066717;28;20194;-77
2022/07/06 03:31:46;;;;;;;2.87;2.57;;;-37.10;99.90;;;;;;5064657;28;20482;-74
2022/07/06 03:34:12;;;;;;;2.93;2.53;;;-33.40;99.90;;;;;;5065847;28;20179;-77
2022/07/06 03:36:38;;;;;;;3.87;2.70;;;-37.80;99.90;;;;;;5066154;28;20247;-77
2022/07/06 03:39:04;;;;;;;2.60;2.40;;;-37.70;99.90;;;;;;5064744;28;20180;-76
2022/07/06 03:41:30;;;;;;;2.97;2.50;;;-36.10;99.90;;;;;;5066020;28;20206;-77
2022/07/06 03:43:56;;;;;;;2.40;2.07;;;-35.70;99.90;;;;;;5065835;28;20164;-76
2022/07/06 03:46:22;;;;;;;7.23;3.03;;;-36.70;99.90;;;;;;5064315;28;20483;-74
2022/07/06 03:48:48;;;;;;;6.43;3.43;;;-36.20;99.90;;;;;;5066350;28;20240;-76
2022/07/06 03:51:13;;;;;;;5.10;2.93;;;-32.30;99.90;;;;;;5065568;28;20226;-76
2022/07/06 03:53:39;;;;;;;3.27;2.97;;;-35.80;99.90;;;;;;5064644;28;20175;-72
2022/07/06 03:58:49;;;;;;;3.23;3.03;;;-36.20;99.90;;;;;;5066224;28;20597;-75
2022/07/06 04:01:15;;;;;;;6.73;4.73;;;-34.70;99.90;;;;;;5065078;28;20204;-75
2022/07/06 04:03:41;;;;;;;4.30;3.43;;;-39.00;99.90;;;;;;5068075;28;20174;-75
2022/07/06 04:06:06;;;;;;;2.80;2.47;;;-40.00;99.90;;;;;;5066371;28;20167;-75
2022/07/06 04:08:32;;;;;;;2.93;2.63;;;-40.00;99.90;;;;;;5066250;28;20168;-74
2022/07/06 04:10:59;;;;;;;3.13;2.83;;;-40.00;99.90;;;;;;5063647;28;20179;-75
2022/07/06 04:13:27;;;;;;;4.30;2.40;;;-40.00;99.90;;;;;;5066176;28;20194;-76
2022/07/06 04:15:53;;;;;;;4.73;2.83;;;-40.00;99.90;;;;;;5064994;28;20571;-76
2022/07/06 04:18:18;;;;;;;5.37;2.63;;;-40.00;99.90;;;;;;5066796;28;20265;-77
2022/07/06 04:20:44;;;;;;;2.87;2.63;;;-40.00;99.90;;;;;;5066296;28;20237;-72
2022/07/06 04:23:10;;;;;;;3.40;3.03;;;-40.00;99.90;;;;;;5066083;28;20235;-76
2022/07/06 04:25:36;;;;;;;2.37;2.27;;;-40.00;99.90;;;;;;5064999;28;20636;-75
2022/07/06 04:28:02;;;;;;;5.30;3.10;;;-40.00;99.90;;;;;;5065767;28;20168;-77
2022/07/06 04:30:27;;;;;;;2.67;2.17;;;-40.00;99.90;;;;;;5064229;28;20171;-74
2022/07/06 04:32:55;;;;;;;7.07;3.20;;;-40.00;99.90;;;;;;5065448;28;20167;-76
2022/07/06 04:35:20;;;;;;;3.23;3.03;;;-40.00;99.90;;;;;;5064693;28;20176;-75
2022/07/06 04:37:46;;;;;;;2.60;2.50;;;-40.00;99.90;;;;;;5063744;28;20601;-68
2022/07/06 04:40:13;;;;;;;3.67;2.97;;;-40.00;99.90;;;;;;5065450;28;20178;-74
2022/07/06 04:42:39;;;;;;;6.30;3.23;;;-40.00;99.90;;;;;;5064930;28;20196;-70
2022/07/06 04:45:05;;;;;;;5.30;3.50;;;-40.00;99.90;;;;;;5064306;28;20527;-67
2022/07/06 04:47:31;;;;;;;6.53;3.30;;;-40.00;99.90;;;;;;5066105;28;20275;-73
2022/07/06 04:49:57;;;;;;;3.10;2.90;;;-40.00;99.90;;;;;;5064792;28;20257;-72
2022/07/06 04:52:23;;;;;;;3.30;3.00;;;-40.00;99.90;;;;;;5064383;28;20190;-69
2022/07/06 04:54:48;;;;;;;7.07;3.13;;;-40.00;99.90;;;;;;5065587;28;20254;-71
2022/07/06 04:57:14;;;;;;;3.90;2.93;;;-40.00;99.90;;;;;;5066371;28;20525;-69
2022/07/06 04:59:44;;;;;;;4.07;2.83;;;-40.00;99.90;;;;;;5068369;28;20174;-68
2022/07/06 05:02:10;;;;;;;5.40;3.70;;;-40.00;99.90;;;;;;5069971;28;20211;-68
2022/07/06 05:04:35;;;;;;;3.77;3.33;;;-40.00;99.90;;;;;;5069376;28;20171;-68
2022/07/06 05:07:01;;;;;;;3.50;3.20;;;-40.00;99.90;;;;;;5068944;28;20480;-67
2022/07/06 05:09:27;;;;;;;3.90;2.90;;;-40.00;99.90;;;;;;5067430;28;20275;-76
2022/07/06 05:11:53;;;;;;;5.73;3.73;;;-40.00;99.90;;;;;;5069181;28;20172;-67
2022/07/06 05:14:19;;;;;;;7.23;3.47;;;-40.00;99.90;;;;;;5068236;28;20207;-74
2022/07/06 05:16:44;;;;;;;4.07;2.60;;;-40.00;99.90;;;;;;5067892;28;20582;-74
2022/07/06 05:19:10;;;;;;;3.50;3.20;;;-40.00;99.90;;;;;;5069460;28;20179;-75
2022/07/06 05:21:36;;;;;;;3.50;3.20;;;-40.00;99.90;;;;;;5067836;28;20637;-73
2022/07/06 05:24:02;;;;;;;3.63;3.33;;;-40.00;99.90;;;;;;5067751;28;20174;-75
2022/07/06 05:26:27;;;;;;;4.27;3.07;;;-40.00;99.90;;;;;;5069286;28;20259;-78
2022/07/06 05:28:53;;;;;;;7.13;4.00;;;-40.00;99.90;;;;;;5067126;28;20452;-70
2022/07/06 05:31:19;;;;;;;6.97;4.07;;;-40.00;99.90;;;;;;5068449;28;20171;-68
2022/07/06 05:33:44;;;;;;;6.23;3.60;;;-40.00;99.90;;;;;;5067145;28;20210;-68
2022/07/06 05:36:10;;;;;;;5.97;3.67;;;-40.00;99.90;;;;;;5065464;28;20176;-69
2022/07/06 05:38:36;;;;;;;5.17;4.27;;;-40.00;99.90;;;;;;5068470;28;20193;-68
2022/07/06 05:41:02;;;;;;;5.00;3.37;;;-40.00;99.90;;;;;;5066951;28;20215;-70
2022/07/06 05:43:28;;;;;;;8.00;3.83;;;-40.00;99.90;;;;;;5067217;28;20289;-69
2022/07/06 05:45:54;;;;;;;3.50;3.20;;;-40.00;99.90;;;;;;5067757;28;20176;-68
2022/07/06 05:51:04;;;;;;;3.70;2.73;;;-37.20;99.90;;;;;;5067218;28;20194;-69
2022/07/06 05:53:30;;;;;;;5.40;2.97;;;-38.50;99.90;;;;;;5067054;28;20175;-69
2022/07/06 05:55:55;;;;;;;9.30;4.07;;;-39.60;99.90;;;;;;5066525;28;20195;-68
2022/07/06 05:58:22;;;;;;;3.53;2.80;;;-34.70;99.90;;;;;;5068901;28;20233;-69
2022/07/06 06:00:47;;;;;;;4.80;3.43;;;-29.90;99.90;;;;;;5066998;28;20199;-70
2022/07/06 06:03:13;;;;;;;4.13;2.70;;;-31.10;99.90;;;;;;5066655;28;20190;-71
2022/07/06 06:05:39;;;;;;;4.90;3.80;;;-32.30;99.90;;;;;;5067878;28;20232;-69
2022/07/06 06:08:05;;;;;;;5.43;4.90;;;-35.70;99.90;;;;;;5065713;28;20168;-70
2022/07/06 06:10:31;;;;;;;6.30;3.10;;;-40.00;99.90;;;;;;5065886;28;20176;-70
2022/07/06 06:12:57;;;;;;;3.97;2.93;;;-37.00;99.90;;;;;;5068258;28;20175;-73
2022/07/06 06:15:23;;;;;;;5.73;3.63;;;-40.00;99.90;;;;;;5066978;28;20908;-70
2022/07/06 06:17:49;;;;;;;6.27;4.07;;;-38.50;99.90;;;;;;5066621;28;20206;-71
2022/07/06 06:20:15;;;;;;;3.80;3.40;;;-39.10;99.90;;;;;;5068535;28;20176;-74
2022/07/06 06:22:52;;;;;;;5.60;3.77;;;-39.00;99.90;;;;;;5067390;28;20498;-71
2022/07/06 06:25:30;;;;;;;11.43;5.17;;;-38.80;99.90;;;;;;5066233;28;20502;-70
2022/07/06 06:27:57;;;;;;;10.50;5.27;;;-37.60;99.90;;;;;;5066131;28;20583;-71
2022/07/06 06:30:23;;;;;;;8.80;5.07;;;-36.90;99.90;;;;;;5067347;28;20547;-73
2022/07/06 06:32:49;;;;;;;5.97;4.33;;;-36.60;99.90;;;;;;5067519;28;20247;-70
2022/07/06 06:35:15;;;;;;;4.83;4.33;;;-40.00;99.90;;;;;;5066037;28;20172;-71
2022/07/06 06:37:41;;;;;;;7.93;4.57;;;-35.20;99.90;;;;;;5067438;28;20252;-72
2022/07/06 06:40:08;;;;;;;7.47;5.13;;;-32.90;99.90;;;;;;5066986;28;20175;-76
2022/07/06 06:42:39;;;;;;;12.17;5.93;;;-36.20;99.90;;;;;;5064931;28;20234;-71
2022/07/06 06:45:06;;;;;;;7.33;4.87;;;-36.50;99.90;;;;;;5066699;28;20254;-76
2022/07/06 06:47:31;;;;;;;7.90;5.70;;;-40.00;99.90;;;;;;5065985;28;20602;-72
2022/07/06 06:49:57;;;;;;;14.67;4.67;;;-35.90;99.90;;;;;;5067722;28;20168;-69
2022/07/06 06:52:23;;;;;;;6.40;4.27;;;-40.00;99.90;;;;;;5065906;28;20172;-77
2022/07/06 06:54:49;;;;;;;7.03;4.37;;;-40.00;99.90;;;;;;5070281;28;20176;-69
2022/07/06 06:57:15;;;;;;;4.23;3.67;;;-39.50;98.20;;;;;;5065662;28;20179;-75
2022/07/06 06:59:41;;;;;;;13.50;4.63;;;-40.00;96.80;;;;;;5067566;28;20199;-77
2022/07/06 07:02:07;;;;;;;9.90;3.87;;;-40.00;95.70;;;;;;5066019;28;20195;-79
2022/07/06 07:04:32;;;;;;;4.47;3.27;;;-39.90;95.80;;;;;;5065599;28;20578;-81
2022/07/06 07:06:58;;;;;;;6.67;2.67;;;-40.00;95.40;;;;;;5067069;28;20175;-80
2022/07/06 07:09:24;;;;;;;7.43;3.03;;;-40.00;94.10;;;;;;5065837;28;20176;-80
2022/07/06 07:11:49;;;;;;;3.40;2.60;;;-40.00;93.80;;;;;;5066052;28;20179;-70
2022/07/06 07:14:15;;;;;;;4.73;2.70;;;-38.70;92.70;;;;;;5066973;28;20199;-75
2022/07/06 07:16:41;;;;;;;10.50;2.87;;;-40.00;90.60;;;;;;5063853;28;20199;-72
2022/07/06 07:19:07;;;;;;;5.43;2.57;;;-35.30;92.40;;;;;;5065388;28;20167;-74
2022/07/06 07:21:33;;;;;;;6.87;2.50;;;-40.00;93.50;;;;;;5064612;28;20239;-78
2022/07/06 07:23:58;;;;;;;3.83;2.30;;;-40.00;92.20;;;;;;5064910;28;20179;-69
2022/07/06 07:26:24;;;;;;;5.73;2.63;;;-40.00;90.00;;;;;;5066866;28;20167;-69
2022/07/06 07:28:50;;;;;;;8.83;3.20;;;-40.00;84.70;;;;;;5065742;28;20290;-75
2022/07/06 07:31:16;;;;;;;6.07;3.10;;;-40.00;83.00;;;;;;5065244;28;20202;-71
2022/07/06 07:33:41;;;;;;;7.37;2.43;;;-40.00;81.70;;;;;;5066547;28;20203;-70
2022/07/06 07:36:07;;;;;;;7.30;3.63;;;-40.00;81.70;;;;;;5065089;28;20595;-77
2022/07/06 07:38:33;;;;;;;5.90;2.37;;;-40.00;83.20;;;;;;5065331;28;20233;-71
2022/07/06 07:40:59;;;;;;;7.57;2.70;;;-40.00;85.90;;;;;;5065681;28;20538;-71
2022/07/06 07:43:25;;;;;;;9.63;4.53;;;-40.00;84.90;;;;;;5064760;28;20176;-70
2022/07/06 07:45:50;;;;;;;7.33;3.47;;;-40.00;80.60;;;;;;5065715;28;20176;-70
2022/07/06 07:48:16;;;;;;;10.30;3.53;;;-40.00;77.70;;;;;;5065925;28;20188;-70
2022/07/06 07:50:43;;;;;;;22.60;3.50;;;-40.00;77.60;;;;;;5063593;28;20168;-70
2022/07/06 07:53:09;;;;;;;5.67;2.93;;;-40.00;80.00;;;;;;5065849;28;20171;-71
2022/07/06 07:55:34;;;;;;;3.10;1.77;;;-40.00;79.40;;;;;;5065992;28;20172;-70
2022/07/06 07:58:00;;;;;;;9.60;2.60;;;-40.00;80.50;;;;;;5064236;28;20172;-70
2022/07/06 08:00:28;;;;;;;9.10;2.80;;;-40.00;80.20;;;;;;5066568;28;20163;-77
2022/07/06 08:02:54;;;;;;;3.27;2.37;;;-40.00;78.80;;;;;;5064551;28;20164;-69
2022/07/06 08:05:20;;;;;;;3.37;1.87;;;-40.00;80.00;;;;;;5064621;28;20487;-70
2022/07/06 08:07:46;;;;;;;3.83;2.60;;;-33.00;86.80;;;;;;5065166;28;20179;-71
2022/07/06 08:10:12;;;;;;;4.73;2.30;;;-32.00;87.20;;;;;;5065065;28;20176;-69
2022/07/06 08:12:38;;;;;;;6.67;2.07;;;-22.50;91.80;;;;;;5064825;28;20549;-72
2022/07/06 08:15:05;;;;;;;4.57;2.40;;;-40.00;82.60;;;;;;5066445;28;20171;-71
2022/07/06 08:17:31;;;;;;;4.63;3.47;;;-32.70;86.30;;;;;;5064461;28;20186;-73
2022/07/06 08:19:57;;;;;;;7.27;3.37;;;-40.00;81.20;;;;;;5063875;28;20271;-72
2022/07/06 08:22:23;;;;;;;8.13;3.63;;;-40.00;82.60;;;;;;5066282;28;20226;-74
2022/07/06 08:24:48;;;;;;;3.77;2.70;;;-29.90;90.10;;;;;;5063274;28;20575;-76
2022/07/06 08:27:14;;;;;;;5.80;2.33;;;-36.60;86.90;;;;;;5065499;28;20634;-80
2022/07/06 08:29:40;;;;;;;3.67;3.10;;;-38.90;83.80;;;;;;5065722;28;20224;-70
2022/07/06 08:32:06;;;;;;;10.17;4.70;;;-40.00;81.40;;;;;;5064196;28;20191;-70
2022/07/06 08:34:32;;;;;;;5.70;3.40;;;-40.00;80.40;;;;;;5069836;28;20220;-70
2022/07/06 08:36:58;;;;;;;6.53;3.57;;;-29.90;88.50;;;;;;5069316;28;20187;-72
2022/07/06 08:39:23;;;;;;;4.63;2.30;;;-33.50;86.00;;;;;;5068130;28;20626;-78
2022/07/06 08:41:50;;;;;;;8.67;3.60;;;-40.00;82.60;;;;;;5067123;28;20195;-72
2022/07/06 08:44:17;;;;;;;5.37;3.43;;;-36.80;84.40;;;;;;5068075;28;20636;-75
2022/07/06 08:46:44;;;;;;;4.90;3.30;;;-36.10;85.40;;;;;;5068979;28;20586;-72
2022/07/06 08:49:15;;;;;;;4.50;3.53;;;-23.50;91.80;;;;;;5067898;28;20282;-74
2022/07/06 08:51:41;;;;;;;8.00;3.10;;;-37.30;86.00;;;;;;5068704;28;20178;-71
2022/07/06 08:54:07;;;;;;;3.80;2.63;;;-33.30;86.20;;;;;;5069952;28;20168;-71
2022/07/06 08:56:33;;;;;;;7.47;3.00;;;-28.80;88.20;;;;;;5068626;28;20175;-69
2022/07/06 08:59:00;;;;;;;4.57;2.60;;;-38.30;81.40;;;;;;5068516;28;20172;-71
2022/07/06 09:01:26;;;;;;;3.43;3.13;;;15.50;99.90;;;;;;5068331;28;20207;-77
2022/07/06 09:03:55;;;;;;;6.53;2.83;;;19.20;99.90;;;;;;5068000;28;20217;-73
2022/07/06 09:06:24;;;;;;;7.47;3.50;;;19.10;99.90;;;;;;5068242;28;20198;-75
2022/07/06 09:08:57;;;;;;;7.53;3.47;;;19.30;99.90;;;;;;5069678;28;20233;-78
2022/07/06 09:11:24;;;;;;;10.10;4.40;;;19.40;99.90;;;;;;5069200;28;20302;-77
2022/07/06 09:13:52;;;;;;;6.10;3.00;;;19.70;99.90;;;;;;5066549;28;20179;-80
2022/07/06 09:16:27;;;;;;;4.93;3.50;;;19.90;99.90;;;;;;5067411;28;20262;-74
2022/07/06 09:18:53;;;;;;;5.33;2.67;;;19.90;99.90;;;;;;5067726;28;20172;-71
2022/07/06 09:21:27;;;;;;;5.70;2.57;;;20.20;99.90;;;;;;5068501;28;20191;-74
2022/07/06 09:24:05;;;;;;;5.67;2.43;;;20.20;99.90;;;;;;5067511;28;20168;-69
2022/07/06 09:26:31;;;;;;;2.73;2.53;;;20.20;99.70;;;;;;5067187;28;20309;-70
2022/07/06 09:28:59;;;;;;;2.87;2.20;;;20.20;99.30;;;;;;5068782;28;20245;-69
2022/07/06 09:31:24;;;;;;;9.40;2.67;;;20.10;99.30;;;;;;5068337;28;20179;-75
2022/07/06 09:34:10;;;;;;;5.00;2.43;;;20.00;99.10;;;;;;5067293;28;20167;-70
2022/07/06 09:36:43;;;;;;;5.43;2.33;;;20.00;99.60;;;;;;5067370;28;20180;-70
2022/07/06 09:39:24;;;;;;;5.87;3.07;;;20.00;99.90;;;;;;5065836;28;20184;-72
2022/07/06 09:41:52;;;;;;;2.37;2.17;;;19.80;99.00;;;;;;5065860;28;20223;-72
2022/07/06 09:44:22;;;;;;;3.07;2.77;;;21.00;98.60;;;;;;5067502;28;20254;-72
2022/07/06 09:46:48;;;;;;;4.57;2.60;;;21.20;98.50;;;;;;5068859;28;20172;-72
2022/07/06 09:49:18;;;;;;;6.67;3.67;;;21.20;99.00;;;;;;5066034;28;20532;-69
2022/07/06 09:51:46;;;;;;;14.77;4.73;;;21.10;99.00;;;;;;5067439;28;20182;-70
2022/07/06 09:54:12;;;;;;;8.53;3.13;;;21.40;99.90;;;;;;5068895;28;20251;-70
2022/07/06 09:56:44;;;;;;;7.30;2.83;;;21.40;99.90;;;;;;5067176;28;20188;-70
2022/07/06 09:59:11;;;;;;;2.93;2.13;;;21.50;99.90;;;;;;5066472;28;20259;-74
2022/07/06 10:01:38;;;;;;;4.77;2.57;;;21.40;99.30;;;;;;5067979;28;20190;-71
2022/07/06 10:04:09;;;;;;;9.93;3.10;;;21.40;99.80;;;;;;5067968;28;20165;-73
2022/07/06 10:06:36;;;;;;;6.03;3.23;;;21.30;98.00;;;;;;5066835;28;20165;-71
2022/07/06 10:09:06;;;;;;;5.67;2.80;;;21.20;97.90;;;;;;5067688;28;20207;-73
2022/07/06 10:11:37;;;;;;;6.87;2.93;;;21.30;97.70;;;;;;5068179;28;20172;-77
2022/07/06 10:14:05;;;;;;;5.63;3.20;;;21.20;97.30;;;;;;5066131;28;20172;-71
2022/07/06 10:16:31;;;;;;;7.20;2.80;;;21.30;98.00;;;;;;5066355;28;20483;-68
2022/07/06 10:18:58;;;;;;;2.87;2.47;;;21.00;98.70;;;;;;5068259;28;20605;-67
2022/07/06 10:21:24;;;;;;;2.53;2.33;;;21.00;99.90;;;;;;5067142;28;20211;-66
2022/07/06 10:23:51;;;;;;;2.73;2.37;;;21.10;98.90;;;;;;5066581;28;20171;-70
2022/07/06 10:26:18;;;;;;;2.93;2.23;;;21.30;98.80;;;;;;5066332;28;20175;-74
2022/07/06 10:28:46;;;;;;;3.13;2.30;;;21.10;99.70;;;;;;5067050;28;20606;-70
2022/07/06 10:31:17;;;;;;;9.60;2.67;;;21.00;99.30;;;;;;5067922;28;20225;-70
2022/07/06 10:33:44;;;;;;;5.20;2.53;;;20.50;98.90;;;;;;5067035;28;20250;-69
2022/07/06 10:36:11;;;;;;;4.13;3.37;;;21.90;97.60;;;;;;5065991;28;20252;-69
2022/07/06 10:38:37;;;;;;;8.57;3.20;;;21.70;98.30;;;;;;5067720;28;20273;-68
2022/07/06 10:41:06;;;;;;;3.30;2.57;;;21.90;98.00;;;;;;5066481;28;20362;-69
2022/07/06 10:43:50;;;;;;;5.93;2.97;;;21.80;98.00;;;;;;5065906;28;20183;-70
2022/07/06 10:46:19;;;;;;;4.40;3.23;;;21.50;98.50;;;;;;5067696;28;20167;-70
2022/07/06 10:48:46;;;;;;;7.30;3.60;;;21.60;98.90;;;;;;5066853;28;20184;-72
2022/07/06 10:51:21;;;;;;;3.60;2.60;;;21.70;98.40;;;;;;5065819;28;20594;-70
2022/07/06 10:53:56;;;;;;;7.73;3.00;;;21.60;98.80;;;;;;5066991;28;20230;-70
2022/07/06 10:56:38;;;;;;;3.60;2.63;;;21.70;99.10;;;;;;5064884;28;20167;-71
2022/07/06 10:59:16;;;;;;;3.37;3.07;;;21.60;98.40;;;;;;5066118;28;20168;-71
2022/07/06 11:02:14;;;;;;;4.90;2.70;;;21.80;99.90;;;;;;5064694;28;20203;-70
2022/07/06 11:04:45;;;;;;;2.50;1.97;;;21.80;98.40;;;;;;5065625;28;20211;-69
2022/07/06 11:07:16;;;;;;;4.70;2.10;;;22.10;98.70;;;;;;5064551;28;20179;-76
2022/07/06 11:09:55;;;;;;;3.07;2.23;;;20.60;97.90;;;;;;5066574;28;20175;-70
2022/07/06 11:12:21;;;;;;;5.13;2.37;;;-15.70;82.50;;;;;;5064025;28;20245;-70
2022/07/06 11:14:49;;;;;;;6.00;2.57;;;-13.00;82.90;;;;;;5065246;28;20171;-70
2022/07/06 11:17:15;;;;;;;4.90;2.20;;;-8.30;84.20;;;;;;5067105;28;20221;-70
2022/07/06 11:19:55;;;;;;;4.57;2.17;;;-11.90;84.30;;;;;;5065465;28;20186;-70
2022/07/06 11:22:21;;;;;;;5.17;2.03;;;-8.20;83.80;;;;;;5064835;28;20191;-71
2022/07/06 11:24:47;;;;;;;3.67;1.53;;;-11.40;82.50;;;;;;5065349;28;20470;-71
2022/07/06 11:27:13;;;;;;;3.27;1.77;;;-10.60;82.00;;;;;;5066404;28;20567;-73
2022/07/06 11:29:40;;;;;;;4.43;1.80;;;22.60;96.10;;;;;;5065286;28;20180;-71
2022/07/06 11:32:09;;;;;;;3.37;2.43;;;23.00;95.60;;;;;;5064894;28;20605;-71
2022/07/06 11:34:41;;;;;;;3.50;2.03;;;22.60;95.10;;;;;;5066996;28;20255;-70
2022/07/06 11:37:12;;;;;;;4.30;1.97;;;22.30;96.20;;;;;;5065628;28;20210;-70
2022/07/06 11:39:40;;;;;;;2.53;1.40;;;22.10;95.70;;;;;;5066781;28;20377;-74
2022/07/06 11:42:07;;;;;;;7.50;2.40;;;22.30;95.60;;;;;;5063916;28;20195;-71
2022/07/06 11:44:34;;;;;;;5.10;2.43;;;22.70;95.00;;;;;;5064388;28;20164;-74
2022/07/06 11:47:03;;;;;;;2.60;1.50;;;23.00;94.40;;;;;;5066800;28;20273;-77
2022/07/06 11:49:30;;;;;;;2.60;1.83;;;22.60;94.90;;;;;;5065484;28;20168;-78
2022/07/06 11:51:56;;;;;;;2.77;1.53;;;22.70;95.20;;;;;;5064889;28;20225;-80
2022/07/06 11:54:23;;;;;;;2.97;1.50;;;23.20;96.10;;;;;;5066624;28;20527;-78
2022/07/06 11:57:00;;;;;;;2.27;2.03;;;22.90;94.00;;;;;;5065520;28;20176;-78
2022/07/06 11:59:31;;;;;;;1.87;1.63;;;22.60;93.90;;;;;;5066384;28;20210;-80
2022/07/06 12:02:02;;;;;;;4.33;1.80;;;22.70;93.60;;;;;;5064548;28;20282;-76
2022/07/06 12:04:30;;;;;;;5.53;1.83;;;22.70;94.60;;;;;;5065126;28;20626;-79
2022/07/06 12:07:00;;;;;;;6.17;2.40;;;22.50;93.90;;;;;;5064520;28;20179;-81
2022/07/06 12:09:31;;;;;;;7.97;3.03;;;23.60;92.80;;;;;;5064576;28;20176;-81
2022/07/06 12:11:57;;;;;;;6.10;2.23;;;23.30;93.50;;;;;;5064737;28;20176;-80
2022/07/06 12:14:23;;;;;;;11.67;2.30;;;23.00;93.60;;;;;;5066324;28;20190;-79
2022/07/06 12:16:50;;;;;;;4.03;1.60;;;22.90;94.10;;;;;;5064857;28;20186;-78
2022/07/06 12:19:16;;;;;;;3.80;1.90;;;22.70;94.10;;;;;;5063685;28;20715;-81
2022/07/06 12:21:48;;;;;;;2.90;1.10;;;22.90;95.40;;;;;;5066326;28;20199;-81
2022/07/06 12:24:33;;;;;;;3.73;2.57;;;22.90;94.20;;;;;;5065334;28;20176;-80
2022/07/06 12:27:17;;;;;;;3.33;1.77;;;23.20;94.40;;;;;;5066186;28;20579;-81
2022/07/06 12:29:44;;;;;;;2.23;1.60;;;23.60;92.70;;;;;;5066314;28;20175;-79
2022/07/06 12:32:17;;;;;;;6.50;2.37;;;23.50;92.90;;;;;;5063747;28;20271;-82
2022/07/06 12:34:44;;;;;;;5.30;2.03;;;23.60;93.40;;;;;;5063945;28;20176;-81
2022/07/06 12:37:12;;;;;;;3.83;1.80;;;23.80;93.40;;;;;;5065428;28;20256;-80
2022/07/06 12:39:47;;;;;;;2.03;1.87;;;23.70;92.90;;;;;;5065510;28;20299;-78
2022/07/06 12:42:15;;;;;;;3.43;1.77;;;23.20;94.00;;;;;;5064901;28;20207;-78
2022/07/06 12:44:46;;;;;;;6.63;2.20;;;22.80;95.30;;;;;;5063766;28;20179;-79